Naniwa Maru No.21 — JG5648 — position and weather

sailwx.info

Track history (hours):
 
Tides and Currents Weather Stations Pressure Air Temp Water Temp Dewpoint Dewpoint Depression Visibility Wind Speed Wind Dir Waves Ship Positions

Naniwa Maru No.21

Last reported at 2015-May-23 00:07 UTC. Time now 2015-May-23 16:28 UTC.
Position N 33°46' E 130°20'.

Length 71 m; draft 5.2 m.

Type: Tanker. MMSI: 431301595.

Date/timePositionNaut miles runAvg speedWind from/ knotsBaromVisibWave heightAir tempDewpointWater temp
2015-May-23 00:07N 33°46' E 130°20'711.6
2015-May-22 23:33N 33°40' E 130°17'6 5.9
2015-May-22 22:32N 33°36' E 130°23'0 0.0
2015-May-22 21:33N 33°36' E 130°23'0 0.0
2015-May-22 20:31N 33°36' E 130°23'0 0.0
2015-May-22 19:32N 33°36' E 130°23'0 0.0
2015-May-22 18:33N 33°36' E 130°23'0 0.0
2015-May-22 17:32N 33°36' E 130°23'0 0.0
2015-May-22 16:31N 33°36' E 130°23'0 0.0
2015-May-22 15:32N 33°36' E 130°23'0 0.0
2015-May-22 14:33N 33°36' E 130°23'0 0.0
2015-May-22 13:32N 33°36' E 130°23'0 0.0
2015-May-22 12:32N 33°36' E 130°23'0 0.0
2015-May-22 11:32N 33°36' E 130°23'0 0.0
2015-May-22 10:33N 33°36' E 130°23'0 0.0
2015-May-22 09:33N 33°36' E 130°23'0 0.0
2015-May-22 08:32N 33°36' E 130°23'0 0.0
2015-May-22 07:32N 33°36' E 130°23'0 0.0
2015-May-22 06:33N 33°36' E 130°23'0 0.0
2015-May-22 05:33N 33°36' E 130°23'3 3.3
2015-May-22 04:33N 33°38' E 130°20'3 1.9
2015-May-22 03:13N 33°39' E 130°17'5 8.1
2015-May-22 02:33N 33°36' E 130°23'0 0.0
2015-May-22 01:33N 33°36' E 130°23'0 0.0
2015-May-22 00:33N 33°36' E 130°23'0 0.0
2015-May-21 23:33N 33°36' E 130°23'0 0.0
2015-May-21 22:33N 33°36' E 130°23'1 0.6
2015-May-21 20:23N 33°37' E 130°22'0 0.0
2015-May-21 19:05N 33°37' E 130°22'0 0.0
2015-May-21 18:08N 33°37' E 130°22'0 0.0
2015-May-21 17:30N 33°37' E 130°22'0 0.0
2015-May-21 15:08N 33°37' E 130°22'3 5.1
2015-May-21 14:33N 33°39' E 130°19'1311.7
2015-May-21 13:29N 33°51' E 130°21'238 4.7
2015-May-19 10:30N 34°08' E 135°07'1 0.8
2015-May-19 09:26N 34°07' E 135°07'0 0.0
2015-May-19 08:32N 34°07' E 135°07'0 0.0
2015-May-19 07:26N 34°07' E 135°07'1 0.5
2015-May-19 06:23N 34°07' E 135°07'6 6.7
2015-May-19 05:33N 34°13' E 135°08'0 0.3
2015-May-19 04:33N 34°13' E 135°08'0 0.0
2015-May-19 03:33N 34°13' E 135°08'4 3.7
2015-May-19 02:33N 34°13' E 135°04'2311.6
2015-May-19 00:33N 34°36' E 135°02'24311.6
2015-May-18 03:33N 33°42' E 130°16'8 8.4
2015-May-18 02:33N 33°36' E 130°23'0 0.0
2015-May-18 01:33N 33°36' E 130°23'0 0.0
2015-May-18 00:33N 33°36' E 130°23'0 0.0
2015-May-17 23:33N 33°36' E 130°23'1 0.7
2015-May-17 22:32N 33°37' E 130°23'2 1.8
2015-May-17 21:24N 33°37' E 130°21'0 0.0
2015-May-17 20:30N 33°37' E 130°21'0 0.0
2015-May-17 19:32N 33°37' E 130°21'7 7.0
2015-May-17 18:33N 33°43' E 130°16'5 0.1
2015-May-16 01:14N 33°46' E 130°20'811.2
2015-May-16 00:33N 33°38' E 130°20'3 3.0
2015-May-15 23:27N 33°36' E 130°23'0 0.0
2015-May-15 22:33N 33°36' E 130°23'0 0.0
2015-May-15 21:26N 33°36' E 130°23'0 0.0
2015-May-15 20:27N 33°36' E 130°23'0 0.0
2015-May-15 19:33N 33°36' E 130°23'0 0.0
2015-May-15 18:33N 33°36' E 130°23'0 0.0
2015-May-15 17:33N 33°36' E 130°23'0 0.0
2015-May-15 16:32N 33°36' E 130°23'0 0.0
2015-May-15 15:25N 33°36' E 130°23'0 0.0
2015-May-15 14:32N 33°36' E 130°23'0 0.0
2015-May-15 13:24N 33°36' E 130°23'0 0.0
2015-May-15 12:23N 33°36' E 130°23'0 0.0
2015-May-15 11:31N 33°36' E 130°23'0 0.0
2015-May-15 10:33N 33°36' E 130°23'0 0.0
2015-May-15 09:33N 33°36' E 130°23'0 0.1
2015-May-15 08:21N 33°36' E 130°23'1 1.7
2015-May-15 07:30N 33°37' E 130°22'4 4.3
2015-May-15 06:31N 33°39' E 130°17'0 0.0
2015-May-15 05:27N 33°39' E 130°17'0 0.0
2015-May-15 04:19N 33°39' E 130°17'1 0.9
2015-May-15 03:23N 33°39' E 130°18'5 4.6
2015-May-15 02:22N 33°36' E 130°23'0 0.0
2015-May-15 01:27N 33°36' E 130°23'0 0.0
2015-May-15 00:13N 33°36' E 130°23'0 0.0
2015-May-14 22:31N 33°36' E 130°23'1 0.5
2015-May-14 21:33N 33°37' E 130°23'1 1.4
2015-May-14 20:32N 33°37' E 130°21'0 0.0
2015-May-14 19:29N 33°37' E 130°21'0 0.0
2015-May-14 18:30N 33°37' E 130°21'0 0.0
2015-May-14 17:31N 33°37' E 130°21'0 0.0
2015-May-14 16:32N 33°37' E 130°21'0 0.0
2015-May-14 15:32N 33°37' E 130°21'0 0.0
2015-May-14 14:05N 33°37' E 130°21'0 0.4
2015-May-14 13:33N 33°37' E 130°21'10 9.6
2015-May-14 12:33N 33°47' E 130°18'240 7.9
2015-May-13 06:07N 34°08' E 135°07'712.9
2015-May-13 05:33N 34°13' E 135°01'13 8.8
2015-May-13 04:04N 34°24' E 135°10'0 0.1
2015-May-13 03:32N 34°24' E 135°10'  
Track history (hours):
 
Tides and Currents Weather Stations Pressure Air Temp Water Temp Dewpoint Dewpoint Depression Visibility Wind Speed Wind Dir Waves Ship Positions

Naniwa Maru No.21

Last reported at 2015-May-23 00:07 UTC. Time now 2015-May-23 16:28 UTC.
Position N 33°46' E 130°20'.

Length 71 m; draft 5.2 m.

Type: Tanker. MMSI: 431301595.

Date/timePositionNaut miles runAvg speedWind from/ knotsBaromVisibWave heightAir tempDewpointWater temp
2015-May-23 00:07N 33°46' E 130°20'711.6
2015-May-22 23:33N 33°40' E 130°17'6 5.9
2015-May-22 22:32N 33°36' E 130°23'0 0.0
2015-May-22 21:33N 33°36' E 130°23'0 0.0
2015-May-22 20:31N 33°36' E 130°23'0 0.0
2015-May-22 19:32N 33°36' E 130°23'0 0.0
2015-May-22 18:33N 33°36' E 130°23'0 0.0
2015-May-22 17:32N 33°36' E 130°23'0 0.0
2015-May-22 16:31N 33°36' E 130°23'0 0.0
2015-May-22 15:32N 33°36' E 130°23'0 0.0
2015-May-22 14:33N 33°36' E 130°23'0 0.0
2015-May-22 13:32N 33°36' E 130°23'0 0.0
2015-May-22 12:32N 33°36' E 130°23'0 0.0
2015-May-22 11:32N 33°36' E 130°23'0 0.0
2015-May-22 10:33N 33°36' E 130°23'0 0.0
2015-May-22 09:33N 33°36' E 130°23'0 0.0
2015-May-22 08:32N 33°36' E 130°23'0 0.0
2015-May-22 07:32N 33°36' E 130°23'0 0.0
2015-May-22 06:33N 33°36' E 130°23'0 0.0
2015-May-22 05:33N 33°36' E 130°23'3 3.3
2015-May-22 04:33N 33°38' E 130°20'3 1.9
2015-May-22 03:13N 33°39' E 130°17'5 8.1
2015-May-22 02:33N 33°36' E 130°23'0 0.0
2015-May-22 01:33N 33°36' E 130°23'0 0.0
2015-May-22 00:33N 33°36' E 130°23'0 0.0
2015-May-21 23:33N 33°36' E 130°23'0 0.0
2015-May-21 22:33N 33°36' E 130°23'1 0.6
2015-May-21 20:23N 33°37' E 130°22'0 0.0
2015-May-21 19:05N 33°37' E 130°22'0 0.0
2015-May-21 18:08N 33°37' E 130°22'0 0.0
2015-May-21 17:30N 33°37' E 130°22'0 0.0
2015-May-21 15:08N 33°37' E 130°22'3 5.1
2015-May-21 14:33N 33°39' E 130°19'1311.7
2015-May-21 13:29N 33°51' E 130°21'238 4.7
2015-May-19 10:30N 34°08' E 135°07'1 0.8
2015-May-19 09:26N 34°07' E 135°07'0 0.0
2015-May-19 08:32N 34°07' E 135°07'0 0.0
2015-May-19 07:26N 34°07' E 135°07'1 0.5
2015-May-19 06:23N 34°07' E 135°07'6 6.7
2015-May-19 05:33N 34°13' E 135°08'0 0.3
2015-May-19 04:33N 34°13' E 135°08'0 0.0
2015-May-19 03:33N 34°13' E 135°08'4 3.7
2015-May-19 02:33N 34°13' E 135°04'2311.6
2015-May-19 00:33N 34°36' E 135°02'24311.6
2015-May-18 03:33N 33°42' E 130°16'8 8.4
2015-May-18 02:33N 33°36' E 130°23'0 0.0
2015-May-18 01:33N 33°36' E 130°23'0 0.0
2015-May-18 00:33N 33°36' E 130°23'0 0.0
2015-May-17 23:33N 33°36' E 130°23'1 0.7
2015-May-17 22:32N 33°37' E 130°23'2 1.8
2015-May-17 21:24N 33°37' E 130°21'0 0.0
2015-May-17 20:30N 33°37' E 130°21'0 0.0
2015-May-17 19:32N 33°37' E 130°21'7 7.0
2015-May-17 18:33N 33°43' E 130°16'5 0.1
2015-May-16 01:14N 33°46' E 130°20'811.2
2015-May-16 00:33N 33°38' E 130°20'3 3.0
2015-May-15 23:27N 33°36' E 130°23'0 0.0
2015-May-15 22:33N 33°36' E 130°23'0 0.0
2015-May-15 21:26N 33°36' E 130°23'0 0.0
2015-May-15 20:27N 33°36' E 130°23'0 0.0
2015-May-15 19:33N 33°36' E 130°23'0 0.0
2015-May-15 18:33N 33°36' E 130°23'0 0.0
2015-May-15 17:33N 33°36' E 130°23'0 0.0
2015-May-15 16:32N 33°36' E 130°23'0 0.0
2015-May-15 15:25N 33°36' E 130°23'0 0.0
2015-May-15 14:32N 33°36' E 130°23'0 0.0
2015-May-15 13:24N 33°36' E 130°23'0 0.0
2015-May-15 12:23N 33°36' E 130°23'0 0.0
2015-May-15 11:31N 33°36' E 130°23'0 0.0
2015-May-15 10:33N 33°36' E 130°23'0 0.0
2015-May-15 09:33N 33°36' E 130°23'0 0.1
2015-May-15 08:21N 33°36' E 130°23'1 1.7
2015-May-15 07:30N 33°37' E 130°22'4 4.3
2015-May-15 06:31N 33°39' E 130°17'0 0.0
2015-May-15 05:27N 33°39' E 130°17'0 0.0
2015-May-15 04:19N 33°39' E 130°17'1 0.9
2015-May-15 03:23N 33°39' E 130°18'5 4.6
2015-May-15 02:22N 33°36' E 130°23'0 0.0
2015-May-15 01:27N 33°36' E 130°23'0 0.0
2015-May-15 00:13N 33°36' E 130°23'0 0.0
2015-May-14 22:31N 33°36' E 130°23'1 0.5
2015-May-14 21:33N 33°37' E 130°23'1 1.4
2015-May-14 20:32N 33°37' E 130°21'0 0.0
2015-May-14 19:29N 33°37' E 130°21'0 0.0
2015-May-14 18:30N 33°37' E 130°21'0 0.0
2015-May-14 17:31N 33°37' E 130°21'0 0.0
2015-May-14 16:32N 33°37' E 130°21'0 0.0
2015-May-14 15:32N 33°37' E 130°21'0 0.0
2015-May-14 14:05N 33°37' E 130°21'0 0.4
2015-May-14 13:33N 33°37' E 130°21'10 9.6
2015-May-14 12:33N 33°47' E 130°18'240 7.9
2015-May-13 06:07N 34°08' E 135°07'712.9
2015-May-13 05:33N 34°13' E 135°01'13 8.8
2015-May-13 04:04N 34°24' E 135°10'0 0.1
2015-May-13 03:32N 34°24' E 135°10'  

Dump ship's entire track history